createdAt,value
2022-09-11T00:00:48.863Z,94.90
2022-09-11T00:03:21.124Z,94.90
2022-09-11T00:05:54.326Z,94.80
2022-09-11T00:08:25.200Z,96.10
2022-09-11T00:10:56.454Z,96.60
2022-09-11T00:13:27.625Z,96.60
2022-09-11T00:15:59.003Z,96.70
2022-09-11T00:18:30.631Z,96.90
2022-09-11T00:21:01.424Z,95.80
2022-09-11T00:23:32.999Z,96.60
2022-09-11T00:26:06.375Z,96.50
2022-09-11T00:29:03.377Z,96.10
2022-09-11T00:31:34.938Z,96.40
2022-09-11T00:34:06.348Z,96.00
2022-09-11T00:36:39.048Z,96.00
2022-09-11T00:39:30.317Z,96.30
2022-09-11T00:42:01.620Z,96.20
2022-09-11T00:44:32.857Z,96.10
2022-09-11T00:47:10.867Z,96.20
2022-09-11T00:49:45.348Z,96.00
2022-09-11T00:52:28.873Z,96.10
2022-09-11T00:55:13.951Z,96.20
2022-09-11T00:57:54.024Z,96.10
2022-09-11T01:00:47.905Z,96.00
2022-09-11T01:03:19.062Z,96.00
2022-09-11T01:05:50.813Z,95.80
2022-09-11T01:08:25.341Z,95.90
2022-09-11T01:11:02.878Z,95.80
2022-09-11T01:13:49.317Z,95.80
2022-09-11T01:16:32.471Z,95.90
2022-09-11T01:19:25.216Z,95.70
2022-09-11T01:22:36.896Z,95.70
2022-09-11T01:25:24.919Z,95.60
2022-09-11T01:28:02.643Z,95.50
2022-09-11T01:30:42.321Z,95.50
2022-09-11T01:33:29.752Z,95.50
2022-09-11T01:36:20.442Z,95.50
2022-09-11T01:38:57.800Z,95.40
2022-09-11T01:41:52.081Z,95.70
2022-09-11T01:44:54.788Z,95.40
2022-09-11T01:47:29.539Z,95.50
2022-09-11T01:50:10.959Z,95.40
2022-09-11T01:52:53.389Z,95.40
2022-09-11T01:55:31.861Z,95.20
2022-09-11T01:58:14.401Z,95.30
2022-09-11T02:00:55.298Z,95.30
2022-09-11T02:04:16.706Z,95.30
2022-09-11T02:07:22.909Z,95.30
2022-09-11T02:10:07.611Z,95.30
2022-09-11T02:12:48.747Z,95.20
2022-09-11T02:15:21.329Z,95.30
2022-09-11T02:17:55.981Z,95.40
2022-09-11T02:20:33.113Z,95.20
2022-09-11T02:23:04.441Z,95.30
2022-09-11T02:25:35.579Z,95.40
2022-09-11T02:28:09.285Z,95.40
2022-09-11T02:30:42.401Z,95.50
2022-09-11T02:33:34.205Z,95.40
2022-09-11T02:36:56.581Z,95.30
2022-09-11T02:39:53.410Z,95.30
2022-09-11T02:42:36.995Z,95.30
2022-09-11T02:45:12.641Z,95.30
2022-09-11T02:47:56.875Z,95.30
2022-09-11T02:53:49.491Z,95.30
2022-09-11T02:57:11.251Z,95.40
2022-09-11T02:59:53.056Z,95.20
2022-09-11T03:02:31.255Z,95.20
2022-09-11T03:05:03.350Z,95.30
2022-09-11T03:07:40.403Z,95.30
2022-09-11T03:10:36.668Z,95.20
2022-09-11T03:13:12.398Z,95.20
2022-09-11T03:15:48.381Z,95.30
2022-09-11T03:18:21.320Z,95.30
2022-09-11T03:20:53.379Z,95.30
2022-09-11T03:23:24.735Z,95.30
2022-09-11T03:25:58.478Z,95.30
2022-09-11T03:28:41.721Z,95.40
2022-09-11T03:31:14.984Z,95.20
2022-09-11T03:33:46.701Z,95.30
2022-09-11T03:36:18.760Z,95.30
2022-09-11T03:39:09.898Z,95.30
2022-09-11T03:41:41.436Z,95.20
2022-09-11T03:44:33.310Z,95.30
2022-09-11T03:47:05.440Z,95.30
2022-09-11T03:49:59.296Z,95.20
2022-09-11T03:52:33.093Z,95.40
2022-09-11T03:55:05.852Z,95.40
2022-09-11T03:57:40.120Z,95.40
2022-09-11T04:00:12.400Z,95.50
2022-09-11T04:02:52.086Z,95.40
2022-09-11T04:06:00.096Z,95.30
2022-09-11T04:08:36.513Z,95.70
2022-09-11T04:11:09.017Z,95.40
2022-09-11T04:13:46.558Z,95.40
2022-09-11T04:16:21.793Z,95.20
2022-09-11T04:18:57.587Z,95.40
2022-09-11T04:21:29.207Z,95.30
2022-09-11T04:24:01.969Z,95.40
2022-09-11T04:26:34.888Z,95.40
2022-09-11T04:29:38.243Z,95.40
2022-09-11T04:32:13.280Z,95.40
2022-09-11T04:34:44.813Z,95.30
2022-09-11T04:37:18.367Z,95.20
2022-09-11T04:42:35.300Z,95.40
2022-09-11T04:45:07.105Z,95.50
2022-09-11T04:47:38.141Z,95.30
2022-09-11T04:50:10.445Z,95.50
2022-09-11T04:52:42.877Z,95.50
2022-09-11T04:55:14.080Z,95.40
2022-09-11T04:57:45.243Z,95.40
2022-09-11T05:00:16.955Z,95.50
2022-09-11T05:03:07.745Z,95.50
2022-09-11T05:05:38.845Z,95.40
2022-09-11T05:08:10.101Z,95.40
2022-09-11T05:10:41.353Z,95.50
2022-09-11T05:13:14.528Z,95.80
2022-09-11T05:15:45.993Z,95.60
2022-09-11T05:18:45.309Z,95.30
2022-09-11T05:21:39.157Z,95.40
2022-09-11T05:24:11.059Z,95.50
2022-09-11T05:26:44.913Z,95.40
2022-09-11T05:29:41.865Z,95.40
2022-09-11T05:32:16.761Z,95.40
2022-09-11T05:34:49.487Z,95.40
2022-09-11T05:37:26.829Z,95.60
2022-09-11T05:43:05.974Z,95.60
2022-09-11T05:45:37.657Z,95.60
2022-09-11T05:48:09.697Z,95.60
2022-09-11T05:53:48.007Z,95.40
2022-09-11T05:56:25.172Z,95.40
2022-09-11T05:59:01.111Z,95.50
2022-09-11T06:01:39.864Z,95.50
2022-09-11T06:04:20.050Z,95.40
2022-09-11T06:06:56.307Z,95.50
2022-09-11T06:09:28.514Z,95.40
2022-09-11T06:12:00.717Z,95.40
2022-09-11T06:14:33.899Z,95.50
2022-09-11T06:17:08.488Z,95.50
2022-09-11T06:19:40.381Z,95.40
2022-09-11T06:22:13.225Z,95.60
2022-09-11T06:24:49.425Z,95.40
2022-09-11T06:27:21.597Z,95.40
2022-09-11T06:29:57.001Z,95.50
2022-09-11T06:32:50.525Z,95.40
2022-09-11T06:35:30.650Z,95.40
2022-09-11T06:38:02.720Z,95.50
2022-09-11T06:40:34.716Z,95.40
2022-09-11T06:43:06.992Z,95.50
2022-09-11T06:45:39.000Z,95.50
2022-09-11T06:48:12.943Z,95.50
2022-09-11T06:50:45.020Z,95.50
2022-09-11T06:53:36.808Z,95.50
2022-09-11T06:56:18.124Z,95.40
2022-09-11T06:58:51.799Z,95.40
2022-09-11T07:01:28.678Z,95.30
2022-09-11T07:04:06.371Z,95.20
2022-09-11T07:09:29.188Z,95.40
2022-09-11T07:12:01.071Z,95.30
2022-09-11T07:14:36.595Z,95.20
2022-09-11T07:17:15.851Z,95.30
2022-09-11T07:19:49.486Z,95.30
2022-09-11T07:22:23.082Z,95.30
2022-09-11T07:24:56.560Z,95.30
2022-09-11T07:27:29.186Z,95.30
2022-09-11T07:30:06.522Z,95.30
2022-09-11T07:32:42.911Z,95.40
2022-09-11T07:35:17.945Z,95.30
2022-09-11T07:37:53.229Z,95.30
2022-09-11T07:40:29.662Z,95.30
2022-09-11T07:43:04.866Z,95.40
2022-09-11T07:45:36.593Z,95.30
2022-09-11T07:48:10.874Z,95.30
2022-09-11T07:50:44.690Z,95.30
2022-09-11T07:53:17.202Z,95.30
2022-09-11T07:55:49.627Z,95.40
2022-09-11T07:58:43.476Z,95.40
2022-09-11T08:01:18.985Z,95.30
2022-09-11T08:03:55.454Z,95.30
2022-09-11T08:06:28.793Z,95.30
2022-09-11T08:09:06.518Z,95.30
2022-09-11T08:12:00.399Z,95.30
2022-09-11T08:14:56.655Z,95.40
2022-09-11T08:17:31.062Z,95.30
2022-09-11T08:20:03.741Z,95.30
2022-09-11T08:22:36.275Z,95.30
2022-09-11T08:25:09.649Z,95.30
2022-09-11T08:27:45.253Z,95.20
2022-09-11T08:30:24.260Z,95.10
2022-09-11T08:32:57.869Z,95.10
2022-09-11T08:35:31.055Z,95.20
2022-09-11T08:38:22.551Z,95.20
2022-09-11T08:40:55.503Z,95.40
2022-09-11T08:43:32.961Z,95.30
2022-09-11T08:46:11.014Z,95.10
2022-09-11T08:49:00.850Z,95.20
2022-09-11T08:51:33.808Z,95.20
2022-09-11T08:54:07.839Z,95.10
2022-09-11T08:57:03.185Z,95.30
2022-09-11T08:59:55.259Z,95.10
2022-09-11T09:02:53.022Z,95.10
2022-09-11T09:06:10.113Z,95.10
2022-09-11T09:09:06.329Z,95.10
2022-09-11T09:12:22.424Z,95.20
2022-09-11T09:15:45.554Z,95.20
2022-09-11T09:18:23.444Z,95.20
2022-09-11T09:21:26.862Z,95.20
2022-09-11T09:24:01.308Z,95.00
2022-09-11T09:26:43.316Z,95.00
2022-09-11T09:29:26.118Z,95.00
2022-09-11T09:32:05.669Z,95.00
2022-09-11T09:34:41.751Z,95.10
2022-09-11T09:37:16.986Z,95.20
2022-09-11T09:39:50.361Z,95.10
2022-09-11T09:42:46.821Z,95.20
2022-09-11T09:45:45.468Z,95.10
2022-09-11T09:48:17.361Z,95.20
2022-09-11T09:50:50.616Z,95.10
2022-09-11T09:53:43.261Z,95.10
2022-09-11T09:56:19.292Z,95.10
2022-09-11T09:59:04.071Z,95.30
2022-09-11T10:01:57.550Z,95.10
2022-09-11T10:04:31.558Z,95.00
2022-09-11T10:07:25.901Z,94.90
2022-09-11T10:10:05.345Z,95.20
2022-09-11T10:12:37.441Z,95.00
2022-09-11T10:15:09.165Z,95.10
2022-09-11T10:17:44.475Z,95.10
2022-09-11T10:20:34.958Z,95.10
2022-09-11T10:23:27.314Z,95.10
2022-09-11T10:25:59.548Z,95.10
2022-09-11T10:31:35.838Z,95.10
2022-09-11T10:34:09.015Z,94.90
2022-09-11T10:36:40.566Z,95.00
2022-09-11T10:39:23.874Z,95.00
2022-09-11T10:42:00.457Z,95.10
2022-09-11T10:44:32.224Z,95.00
2022-09-11T10:47:18.928Z,95.00
2022-09-11T10:49:50.556Z,94.90
2022-09-11T10:52:23.758Z,95.00
2022-09-11T10:55:17.052Z,95.00
2022-09-11T10:57:53.519Z,95.00
2022-09-11T11:03:33.159Z,94.90
2022-09-11T11:06:40.849Z,95.00
2022-09-11T11:09:18.380Z,94.90
2022-09-11T11:12:16.837Z,94.90
2022-09-11T11:14:58.298Z,94.80
2022-09-11T11:17:35.292Z,94.90
2022-09-11T11:20:30.452Z,94.90
2022-09-11T11:23:16.751Z,94.70
2022-09-11T11:26:01.320Z,94.90
2022-09-11T11:28:53.683Z,94.90
2022-09-11T11:31:44.466Z,94.80
2022-09-11T11:35:19.480Z,94.90
2022-09-11T11:37:58.194Z,94.80
2022-09-11T11:40:48.865Z,94.80
2022-09-11T11:43:26.757Z,94.80
2022-09-11T11:46:23.257Z,94.90
2022-09-11T11:49:02.932Z,94.80
2022-09-11T11:51:50.801Z,94.90
2022-09-11T11:54:47.939Z,94.80
2022-09-11T11:57:24.328Z,94.90
2022-09-11T12:00:10.589Z,94.80
2022-09-11T12:05:47.442Z,95.00
2022-09-11T12:08:19.325Z,94.90
2022-09-11T12:11:09.293Z,94.90
2022-09-11T12:13:46.526Z,94.80
2022-09-11T12:16:46.171Z,94.80
2022-09-11T12:19:21.645Z,94.90
2022-09-11T12:21:56.225Z,94.90
2022-09-11T12:24:47.546Z,94.80
2022-09-11T12:27:39.027Z,94.70
2022-09-11T12:33:54.047Z,94.70
2022-09-11T12:36:45.191Z,94.90
2022-09-11T12:40:20.597Z,94.60
2022-09-11T12:43:04.485Z,94.80
2022-09-11T12:45:40.052Z,94.70
2022-09-11T12:48:24.917Z,94.70
2022-09-11T12:50:59.943Z,94.70
2022-09-11T12:53:46.948Z,94.70
2022-09-11T12:56:23.368Z,94.80
2022-09-11T12:58:59.924Z,94.60
2022-09-11T13:01:49.820Z,94.70
2022-09-11T13:04:31.621Z,94.70
2022-09-11T13:07:59.158Z,94.80
2022-09-11T13:10:52.122Z,94.80
2022-09-11T13:13:45.327Z,94.60
2022-09-11T13:16:36.227Z,94.60
2022-09-11T13:19:46.875Z,94.60
2022-09-11T13:22:32.971Z,94.70
2022-09-11T13:25:20.623Z,94.70
2022-09-11T13:28:05.436Z,94.60
2022-09-11T13:30:58.615Z,94.60
2022-09-11T13:33:31.705Z,94.60
2022-09-11T13:36:26.737Z,94.60
2022-09-11T13:39:04.414Z,94.70
2022-09-11T13:41:43.228Z,94.60
2022-09-11T13:44:44.434Z,94.70
2022-09-11T13:47:24.843Z,94.70
2022-09-11T13:53:32.249Z,94.60
2022-09-11T13:56:03.921Z,94.60
2022-09-11T13:58:37.369Z,94.60
2022-09-11T14:01:17.147Z,94.60
2022-09-11T14:03:50.769Z,94.60
2022-09-11T14:06:49.119Z,94.10
2022-09-11T14:09:23.160Z,94.60
2022-09-11T14:11:57.204Z,94.50
2022-09-11T14:14:32.182Z,94.60
2022-09-11T14:17:25.093Z,94.50
2022-09-11T14:20:09.557Z,94.70
2022-09-11T14:22:41.863Z,95.00
2022-09-11T14:25:26.016Z,94.60
2022-09-11T14:27:58.222Z,94.70
2022-09-11T14:31:09.136Z,95.00
2022-09-11T14:34:12.466Z,94.10
2022-09-11T14:36:49.785Z,95.20
2022-09-11T14:39:47.077Z,94.80
2022-09-11T14:42:29.320Z,94.60
2022-09-11T14:45:12.090Z,94.60
2022-09-11T14:47:43.645Z,94.10
2022-09-11T14:50:38.332Z,94.80
2022-09-11T14:53:22.884Z,94.80
2022-09-11T14:58:48.042Z,94.80
2022-09-11T15:01:27.788Z,94.70
2022-09-11T15:04:25.995Z,94.60
2022-09-11T15:06:58.944Z,95.90
2022-09-11T15:09:30.837Z,94.50
2022-09-11T15:12:05.467Z,94.50
2022-09-11T15:14:58.376Z,94.20
2022-09-11T15:17:40.899Z,94.40
2022-09-11T15:20:13.068Z,94.90
2022-09-11T15:22:44.778Z,95.30
2022-09-11T15:25:17.459Z,94.80
2022-09-11T15:27:54.275Z,95.10
2022-09-11T15:30:30.425Z,95.60
2022-09-11T15:33:02.192Z,94.30
2022-09-11T15:35:54.947Z,95.80
2022-09-11T15:38:49.052Z,95.20
2022-09-11T15:41:21.458Z,96.30
2022-09-11T15:44:24.652Z,94.80
2022-09-11T15:46:57.728Z,95.10
2022-09-11T15:49:36.137Z,95.10
2022-09-11T15:52:08.105Z,95.30
2022-09-11T15:54:42.994Z,95.10
2022-09-11T15:57:19.090Z,95.00
2022-09-11T16:00:11.432Z,95.40
2022-09-11T16:03:07.732Z,95.00
2022-09-11T16:08:56.289Z,95.60
2022-09-11T16:11:33.069Z,95.80
2022-09-11T16:14:24.120Z,95.80
2022-09-11T16:16:57.507Z,95.60
2022-09-11T16:20:08.667Z,96.30
2022-09-11T16:22:40.461Z,96.00
2022-09-11T16:25:12.242Z,95.50
2022-09-11T16:27:45.274Z,95.10
2022-09-11T16:30:41.548Z,95.40
2022-09-11T16:33:15.724Z,94.90
2022-09-11T16:36:17.619Z,94.70
2022-09-11T16:39:00.725Z,94.90
2022-09-11T16:41:32.232Z,94.50
2022-09-11T16:44:04.272Z,94.80
2022-09-11T16:46:36.486Z,94.70
2022-09-11T16:49:08.128Z,95.20
2022-09-11T16:51:39.815Z,94.80
2022-09-11T16:54:12.385Z,94.80
2022-09-11T16:56:46.003Z,95.00
2022-09-11T16:59:18.557Z,95.40
2022-09-11T17:02:13.075Z,94.80
2022-09-11T17:04:46.555Z,95.00
2022-09-11T17:07:18.071Z,94.80
2022-09-11T17:09:54.758Z,95.50
2022-09-11T17:12:27.120Z,95.00
2022-09-11T17:15:38.260Z,95.00
2022-09-11T17:18:33.836Z,95.00
2022-09-11T17:21:10.720Z,94.90
2022-09-11T17:23:42.251Z,94.40
2022-09-11T17:26:16.767Z,94.70
2022-09-11T17:28:58.090Z,94.50
2022-09-11T17:31:29.867Z,95.00
2022-09-11T17:34:22.502Z,95.00
2022-09-11T17:36:53.939Z,94.90
2022-09-11T17:39:28.668Z,94.70
2022-09-11T17:42:00.099Z,94.70
2022-09-11T17:44:52.243Z,94.40
2022-09-11T17:47:44.256Z,94.40
2022-09-11T17:50:42.589Z,94.30
2022-09-11T17:53:15.872Z,94.30
2022-09-11T17:55:57.565Z,94.60
2022-09-11T17:58:32.056Z,94.50
2022-09-11T18:01:04.473Z,94.30
2022-09-11T18:04:00.408Z,94.40
2022-09-11T18:06:40.772Z,94.40
2022-09-11T18:09:22.442Z,94.60
2022-09-11T18:11:56.230Z,94.70
2022-09-11T18:14:28.386Z,94.80
2022-09-11T18:16:59.780Z,94.90
2022-09-11T18:22:15.669Z,95.40
2022-09-11T18:24:49.724Z,95.10
2022-09-11T18:27:21.069Z,95.50
2022-09-11T18:29:52.360Z,94.70
2022-09-11T18:32:23.603Z,94.90
2022-09-11T18:34:55.090Z,94.80
2022-09-11T18:37:27.435Z,94.50
2022-09-11T18:39:59.973Z,95.00
2022-09-11T18:42:31.676Z,94.60
2022-09-11T18:45:02.698Z,94.60
2022-09-11T18:47:33.717Z,94.60
2022-09-11T18:50:05.538Z,95.10
2022-09-11T18:52:36.860Z,94.90
2022-09-11T18:55:27.655Z,95.40
2022-09-11T18:58:00.196Z,94.70
2022-09-11T19:00:31.582Z,94.60
2022-09-11T19:05:47.754Z,94.50
2022-09-11T19:08:20.837Z,94.30
2022-09-11T19:10:51.981Z,94.60
2022-09-11T19:13:27.273Z,94.30
2022-09-11T19:16:01.888Z,94.70
2022-09-11T19:18:34.288Z,94.50
2022-09-11T19:21:14.517Z,94.50
2022-09-11T19:23:47.477Z,94.30
2022-09-11T19:26:25.164Z,94.40
2022-09-11T19:32:04.709Z,94.30
2022-09-11T19:34:38.710Z,94.30
2022-09-11T19:37:14.969Z,94.00
2022-09-11T19:39:45.981Z,96.30
2022-09-11T19:45:01.461Z,94.60
2022-09-11T19:47:32.242Z,94.80
2022-09-11T19:52:48.428Z,94.40
2022-09-11T19:55:19.555Z,94.30
2022-09-11T19:57:50.372Z,94.60
2022-09-11T20:00:21.306Z,94.40
2022-09-11T20:05:41.211Z,94.50
2022-09-11T20:08:16.308Z,94.10
2022-09-11T20:10:51.933Z,94.40
2022-09-11T20:13:22.982Z,94.50
2022-09-11T20:15:54.068Z,94.40
2022-09-11T20:18:24.972Z,94.50
2022-09-11T20:21:15.685Z,94.40
2022-09-11T20:23:48.427Z,94.50
2022-09-11T20:26:40.640Z,94.00
2022-09-11T20:29:16.041Z,94.50
2022-09-11T20:31:48.481Z,94.20
2022-09-11T20:34:21.276Z,94.10
2022-09-11T20:36:52.338Z,94.20
2022-09-11T20:39:24.537Z,94.10
2022-09-11T20:41:55.643Z,94.30
2022-09-11T20:44:26.445Z,94.20
2022-09-11T20:46:57.745Z,94.40
2022-09-11T20:49:28.995Z,94.50
2022-09-11T20:52:00.501Z,94.20
2022-09-11T20:54:31.978Z,94.90
2022-09-11T20:57:02.958Z,94.20
2022-09-11T20:59:34.378Z,94.40
2022-09-11T21:02:05.349Z,94.30
2022-09-11T21:04:36.318Z,94.20
2022-09-11T21:07:07.384Z,94.40
2022-09-11T21:09:38.664Z,94.20
2022-09-11T21:12:11.154Z,94.10
2022-09-11T21:14:43.866Z,94.50
2022-09-11T21:17:14.745Z,94.30
2022-09-11T21:19:45.741Z,94.10
2022-09-11T21:22:16.820Z,94.00
2022-09-11T21:24:47.746Z,94.10
2022-09-11T21:27:21.204Z,94.10
2022-09-11T21:29:57.071Z,94.20
2022-09-11T21:32:28.156Z,94.10
2022-09-11T21:34:59.057Z,94.10
2022-09-11T21:37:49.597Z,94.00
2022-09-11T21:40:20.663Z,94.00
2022-09-11T21:42:51.670Z,93.90
2022-09-11T21:45:22.655Z,93.90
2022-09-11T21:47:53.732Z,93.80
2022-09-11T21:50:24.725Z,93.90
2022-09-11T21:52:56.956Z,93.90
2022-09-11T21:55:29.508Z,94.00
2022-09-11T21:58:01.031Z,94.10
2022-09-11T22:00:32.172Z,93.90
2022-09-11T22:03:03.127Z,93.80
2022-09-11T22:05:34.331Z,93.80
2022-09-11T22:08:26.426Z,94.00
2022-09-11T22:10:57.309Z,93.80
2022-09-11T22:13:28.324Z,93.90
2022-09-11T22:16:00.870Z,94.00
2022-09-11T22:18:31.936Z,93.90
2022-09-11T22:21:23.017Z,93.80
2022-09-11T22:23:53.943Z,93.90
2022-09-11T22:26:44.411Z,93.90
2022-09-11T22:29:15.539Z,93.90
2022-09-11T22:31:46.726Z,93.80
2022-09-11T22:34:17.768Z,93.70
2022-09-11T22:36:48.888Z,93.80
2022-09-11T22:39:19.832Z,93.90
2022-09-11T22:41:50.651Z,93.80
2022-09-11T22:44:21.586Z,93.70
2022-09-11T22:46:52.628Z,93.60
2022-09-11T22:49:23.504Z,93.70
2022-09-11T22:51:54.914Z,93.70
2022-09-11T22:54:26.817Z,93.70
2022-09-11T22:57:17.583Z,93.80
2022-09-11T22:59:48.676Z,93.90
2022-09-11T23:02:20.249Z,93.90
2022-09-11T23:05:09.291Z,94.00
2022-09-11T23:07:41.157Z,93.80
2022-09-11T23:10:13.144Z,93.80
2022-09-11T23:12:44.936Z,93.80
2022-09-11T23:15:16.000Z,93.80
2022-09-11T23:17:47.101Z,93.90
2022-09-11T23:20:20.239Z,93.70
2022-09-11T23:22:51.196Z,94.00
2022-09-11T23:25:26.548Z,93.80
2022-09-11T23:27:57.417Z,93.70
2022-09-11T23:30:49.640Z,93.70
2022-09-11T23:33:20.704Z,93.80
2022-09-11T23:35:51.740Z,93.90
2022-09-11T23:38:28.733Z,94.00
2022-09-11T23:41:20.868Z,93.70
2022-09-11T23:43:52.261Z,93.80
2022-09-11T23:46:24.590Z,93.90
2022-09-11T23:48:55.763Z,93.80
2022-09-11T23:51:28.265Z,93.70
2022-09-11T23:53:59.175Z,93.80
2022-09-11T23:56:30.435Z,93.80
2022-09-11T23:59:02.683Z,93.90
